sensor_id;sensor_type;location;lat;lon;timestamp;temperature;humidity
20035;DHT22;10178;48.034;9.800;2022-12-29T00:02:08;6.90;99.90
20035;DHT22;10178;48.034;9.800;2022-12-29T00:04:33;6.90;99.90
20035;DHT22;10178;48.034;9.800;2022-12-29T00:06:59;6.80;99.90
20035;DHT22;10178;48.034;9.800;2022-12-29T00:09:25;6.90;99.90
20035;DHT22;10178;48.034;9.800;2022-12-29T00:11:51;6.90;99.90
20035;DHT22;10178;48.034;9.800;2022-12-29T00:14:17;7.00;99.90
20035;DHT22;10178;48.034;9.800;2022-12-29T00:17:03;7.00;99.90
20035;DHT22;10178;48.034;9.800;2022-12-29T00:19:28;7.10;99.90
20035;DHT22;10178;48.034;9.800;2022-12-29T00:22:14;7.30;99.90
20035;DHT22;10178;48.034;9.800;2022-12-29T00:24:59;7.40;99.90
20035;DHT22;10178;48.034;9.800;2022-12-29T00:27:43;7.60;99.90
20035;DHT22;10178;48.034;9.800;2022-12-29T00:30:28;7.60;99.90
20035;DHT22;10178;48.034;9.800;2022-12-29T00:33:17;7.80;99.90
20035;DHT22;10178;48.034;9.800;2022-12-29T00:36:09;7.80;99.90
20035;DHT22;10178;48.034;9.800;2022-12-29T00:38:39;7.60;99.90
20035;DHT22;10178;48.034;9.800;2022-12-29T00:41:25;7.50;99.90
20035;DHT22;10178;48.034;9.800;2022-12-29T00:44:11;7.40;99.90
20035;DHT22;10178;48.034;9.800;2022-12-29T00:46:38;7.20;99.90
20035;DHT22;10178;48.034;9.800;2022-12-29T00:49:06;7.10;99.90
20035;DHT22;10178;48.034;9.800;2022-12-29T00:51:50;7.00;99.90
20035;DHT22;10178;48.034;9.800;2022-12-29T00:54:17;6.90;99.90
20035;DHT22;10178;48.034;9.800;2022-12-29T00:56:43;6.90;99.90
20035;DHT22;10178;48.034;9.800;2022-12-29T00:59:10;6.80;99.90
20035;DHT22;10178;48.034;9.800;2022-12-29T01:01:37;6.80;99.90
20035;DHT22;10178;48.034;9.800;2022-12-29T01:04:04;6.90;99.90
20035;DHT22;10178;48.034;9.800;2022-12-29T01:06:30;7.10;99.90
20035;DHT22;10178;48.034;9.800;2022-12-29T01:08:55;7.20;99.90
20035;DHT22;10178;48.034;9.800;2022-12-29T01:11:39;7.10;99.90
20035;DHT22;10178;48.034;9.800;2022-12-29T01:14:06;7.40;99.90
20035;DHT22;10178;48.034;9.800;2022-12-29T01:16:31;7.60;99.90
20035;DHT22;10178;48.034;9.800;2022-12-29T01:18:57;7.50;99.90
20035;DHT22;10178;48.034;9.800;2022-12-29T01:21:23;7.50;99.90
20035;DHT22;10178;48.034;9.800;2022-12-29T01:23:49;7.50;99.90
20035;DHT22;10178;48.034;9.800;2022-12-29T01:26:16;7.40;99.90
20035;DHT22;10178;48.034;9.800;2022-12-29T01:28:42;7.30;99.90
20035;DHT22;10178;48.034;9.800;2022-12-29T01:31:09;7.30;99.90
20035;DHT22;10178;48.034;9.800;2022-12-29T01:33:35;7.40;99.90
20035;DHT22;10178;48.034;9.800;2022-12-29T01:36:02;7.40;99.90
20035;DHT22;10178;48.034;9.800;2022-12-29T01:38:27;7.50;99.90
20035;DHT22;10178;48.034;9.800;2022-12-29T01:40:53;7.50;99.90
20035;DHT22;10178;48.034;9.800;2022-12-29T01:43:19;7.50;99.90
20035;DHT22;10178;48.034;9.800;2022-12-29T01:45:48;7.40;99.90
20035;DHT22;10178;48.034;9.800;2022-12-29T01:48:17;7.30;99.90
20035;DHT22;10178;48.034;9.800;2022-12-29T01:50:50;7.30;99.90
20035;DHT22;10178;48.034;9.800;2022-12-29T01:53:26;7.40;99.90
20035;DHT22;10178;48.034;9.800;2022-12-29T01:55:56;7.50;99.90
20035;DHT22;10178;48.034;9.800;2022-12-29T01:58:29;7.50;99.90
20035;DHT22;10178;48.034;9.800;2022-12-29T02:00:56;7.40;99.90
20035;DHT22;10178;48.034;9.800;2022-12-29T02:03:23;7.30;99.90
20035;DHT22;10178;48.034;9.800;2022-12-29T02:06:05;7.20;99.90
20035;DHT22;10178;48.034;9.800;2022-12-29T02:08:34;7.10;99.90
20035;DHT22;10178;48.034;9.800;2022-12-29T02:11:00;7.10;99.90
20035;DHT22;10178;48.034;9.800;2022-12-29T02:13:27;7.20;99.90
20035;DHT22;10178;48.034;9.800;2022-12-29T02:24:38;7.20;99.90
20035;DHT22;10178;48.034;9.800;2022-12-29T02:35:49;7.30;99.90
20035;DHT22;10178;48.034;9.800;2022-12-29T02:38:26;7.40;99.90
20035;DHT22;10178;48.034;9.800;2022-12-29T02:41:05;7.60;99.90
20035;DHT22;10178;48.034;9.800;2022-12-29T02:46:20;7.60;99.90
20035;DHT22;10178;48.034;9.800;2022-12-29T02:48:52;7.80;99.90
20035;DHT22;10178;48.034;9.800;2022-12-29T02:54:10;7.80;99.90
20035;DHT22;10178;48.034;9.800;2022-12-29T02:56:54;7.80;99.90
20035;DHT22;10178;48.034;9.800;2022-12-29T02:59:20;7.80;99.90
20035;DHT22;10178;48.034;9.800;2022-12-29T03:10:57;7.90;99.90
20035;DHT22;10178;48.034;9.800;2022-12-29T03:14:07;7.90;99.90
20035;DHT22;10178;48.034;9.800;2022-12-29T03:16:46;8.00;99.90
20035;DHT22;10178;48.034;9.800;2022-12-29T03:19:20;8.00;99.90
20035;DHT22;10178;48.034;9.800;2022-12-29T03:21:59;8.00;99.90
20035;DHT22;10178;48.034;9.800;2022-12-29T03:24:49;7.90;99.90
20035;DHT22;10178;48.034;9.800;2022-12-29T03:27:29;8.00;99.90
20035;DHT22;10178;48.034;9.800;2022-12-29T03:30:01;7.90;99.90
20035;DHT22;10178;48.034;9.800;2022-12-29T03:32:35;8.00;99.90
20035;DHT22;10178;48.034;9.800;2022-12-29T03:35:03;8.00;99.90
20035;DHT22;10178;48.034;9.800;2022-12-29T03:37:34;8.00;99.90
20035;DHT22;10178;48.034;9.800;2022-12-29T03:40:01;8.00;99.90
20035;DHT22;10178;48.034;9.800;2022-12-29T03:42:29;7.90;99.90
20035;DHT22;10178;48.034;9.800;2022-12-29T03:44:56;7.90;99.90
20035;DHT22;10178;48.034;9.800;2022-12-29T03:47:23;8.00;99.90
20035;DHT22;10178;48.034;9.800;2022-12-29T03:49:49;8.00;99.90
20035;DHT22;10178;48.034;9.800;2022-12-29T03:52:16;7.90;99.90
20035;DHT22;10178;48.034;9.800;2022-12-29T03:54:42;8.00;99.90
20035;DHT22;10178;48.034;9.800;2022-12-29T03:57:09;7.80;99.90
20035;DHT22;10178;48.034;9.800;2022-12-29T03:59:34;7.80;99.90
20035;DHT22;10178;48.034;9.800;2022-12-29T04:02:00;7.90;99.90
20035;DHT22;10178;48.034;9.800;2022-12-29T04:04:25;7.90;99.90
20035;DHT22;10178;48.034;9.800;2022-12-29T04:06:51;7.80;99.90
20035;DHT22;10178;48.034;9.800;2022-12-29T04:09:17;7.80;99.90
20035;DHT22;10178;48.034;9.800;2022-12-29T04:11:42;7.70;99.90
20035;DHT22;10178;48.034;9.800;2022-12-29T04:14:08;7.70;99.90
20035;DHT22;10178;48.034;9.800;2022-12-29T04:16:34;7.60;99.90
20035;DHT22;10178;48.034;9.800;2022-12-29T04:19:01;7.70;99.90
20035;DHT22;10178;48.034;9.800;2022-12-29T04:21:27;7.70;99.90
20035;DHT22;10178;48.034;9.800;2022-12-29T04:23:53;7.70;99.90
20035;DHT22;10178;48.034;9.800;2022-12-29T04:26:19;7.60;99.90
20035;DHT22;10178;48.034;9.800;2022-12-29T04:28:44;7.60;99.90
20035;DHT22;10178;48.034;9.800;2022-12-29T04:31:10;7.60;99.90
20035;DHT22;10178;48.034;9.800;2022-12-29T04:33:36;7.70;99.90
20035;DHT22;10178;48.034;9.800;2022-12-29T04:36:01;7.70;99.90
20035;DHT22;10178;48.034;9.800;2022-12-29T04:38:27;7.70;99.90
20035;DHT22;10178;48.034;9.800;2022-12-29T04:40:53;7.70;99.90
20035;DHT22;10178;48.034;9.800;2022-12-29T04:43:18;7.80;99.90
20035;DHT22;10178;48.034;9.800;2022-12-29T04:45:46;7.80;99.90
20035;DHT22;10178;48.034;9.800;2022-12-29T04:48:13;7.70;99.90
20035;DHT22;10178;48.034;9.800;2022-12-29T04:50:39;7.70;99.90
20035;DHT22;10178;48.034;9.800;2022-12-29T04:53:05;7.70;99.90
20035;DHT22;10178;48.034;9.800;2022-12-29T04:55:30;7.60;99.90
20035;DHT22;10178;48.034;9.800;2022-12-29T04:57:56;7.60;99.90
20035;DHT22;10178;48.034;9.800;2022-12-29T05:00:22;7.60;99.90
20035;DHT22;10178;48.034;9.800;2022-12-29T05:02:48;7.60;99.90
20035;DHT22;10178;48.034;9.800;2022-12-29T05:05:14;7.50;99.90
20035;DHT22;10178;48.034;9.800;2022-12-29T05:07:39;7.50;99.90
20035;DHT22;10178;48.034;9.800;2022-12-29T05:10:06;7.50;99.90
20035;DHT22;10178;48.034;9.800;2022-12-29T05:12:33;7.50;99.90
20035;DHT22;10178;48.034;9.800;2022-12-29T05:14:59;7.50;99.90
20035;DHT22;10178;48.034;9.800;2022-12-29T05:17:25;7.50;99.90
20035;DHT22;10178;48.034;9.800;2022-12-29T05:19:50;7.50;99.90
20035;DHT22;10178;48.034;9.800;2022-12-29T05:22:16;7.40;99.90
20035;DHT22;10178;48.034;9.800;2022-12-29T05:24:42;7.40;99.90
20035;DHT22;10178;48.034;9.800;2022-12-29T05:27:07;7.40;99.90
20035;DHT22;10178;48.034;9.800;2022-12-29T05:29:33;7.30;99.90
20035;DHT22;10178;48.034;9.800;2022-12-29T05:31:58;7.40;99.90
20035;DHT22;10178;48.034;9.800;2022-12-29T05:34:24;7.40;99.90
20035;DHT22;10178;48.034;9.800;2022-12-29T05:36:50;7.40;99.90
20035;DHT22;10178;48.034;9.800;2022-12-29T05:39:16;7.40;99.90
20035;DHT22;10178;48.034;9.800;2022-12-29T05:41:41;7.40;99.90
20035;DHT22;10178;48.034;9.800;2022-12-29T05:44:07;7.30;99.90
20035;DHT22;10178;48.034;9.800;2022-12-29T05:46:33;7.40;99.90
20035;DHT22;10178;48.034;9.800;2022-12-29T05:48:58;7.40;99.90
20035;DHT22;10178;48.034;9.800;2022-12-29T05:51:24;7.50;99.90
20035;DHT22;10178;48.034;9.800;2022-12-29T05:53:50;7.50;99.90
20035;DHT22;10178;48.034;9.800;2022-12-29T05:56:15;7.50;99.90
20035;DHT22;10178;48.034;9.800;2022-12-29T05:58:41;7.50;99.90
20035;DHT22;10178;48.034;9.800;2022-12-29T06:01:07;7.40;99.90
20035;DHT22;10178;48.034;9.800;2022-12-29T06:03:32;7.30;99.90
20035;DHT22;10178;48.034;9.800;2022-12-29T06:05:58;7.30;99.90
20035;DHT22;10178;48.034;9.800;2022-12-29T06:08:24;7.20;99.90
20035;DHT22;10178;48.034;9.800;2022-12-29T06:10:49;7.20;99.90
20035;DHT22;10178;48.034;9.800;2022-12-29T06:13:15;7.20;99.90
20035;DHT22;10178;48.034;9.800;2022-12-29T06:15:41;7.20;99.90
20035;DHT22;10178;48.034;9.800;2022-12-29T06:18:06;7.10;99.90
20035;DHT22;10178;48.034;9.800;2022-12-29T06:20:32;7.20;99.90
20035;DHT22;10178;48.034;9.800;2022-12-29T06:22:58;7.20;99.90
20035;DHT22;10178;48.034;9.800;2022-12-29T06:25:23;7.30;99.90
20035;DHT22;10178;48.034;9.800;2022-12-29T06:27:49;7.30;99.90
20035;DHT22;10178;48.034;9.800;2022-12-29T06:30:15;7.20;99.90
20035;DHT22;10178;48.034;9.800;2022-12-29T06:32:41;7.30;99.90
20035;DHT22;10178;48.034;9.800;2022-12-29T06:35:07;7.20;99.90
20035;DHT22;10178;48.034;9.800;2022-12-29T06:37:33;7.10;99.90
20035;DHT22;10178;48.034;9.800;2022-12-29T06:39:58;7.10;99.90
20035;DHT22;10178;48.034;9.800;2022-12-29T06:42:24;7.20;99.90
20035;DHT22;10178;48.034;9.800;2022-12-29T06:44:49;7.20;99.90
20035;DHT22;10178;48.034;9.800;2022-12-29T06:47:15;7.30;99.90
20035;DHT22;10178;48.034;9.800;2022-12-29T06:49:41;7.40;99.90
20035;DHT22;10178;48.034;9.800;2022-12-29T06:52:06;7.50;99.90
20035;DHT22;10178;48.034;9.800;2022-12-29T06:54:32;7.50;99.90
20035;DHT22;10178;48.034;9.800;2022-12-29T06:56:57;7.60;99.90
20035;DHT22;10178;48.034;9.800;2022-12-29T06:59:23;7.60;99.90
20035;DHT22;10178;48.034;9.800;2022-12-29T07:01:50;7.60;99.90
20035;DHT22;10178;48.034;9.800;2022-12-29T07:04:16;7.60;99.90
20035;DHT22;10178;48.034;9.800;2022-12-29T07:06:41;7.60;99.90
20035;DHT22;10178;48.034;9.800;2022-12-29T07:09:08;7.60;99.90
20035;DHT22;10178;48.034;9.800;2022-12-29T07:11:34;7.60;99.90
20035;DHT22;10178;48.034;9.800;2022-12-29T07:14:00;7.60;99.90
20035;DHT22;10178;48.034;9.800;2022-12-29T07:16:26;7.70;99.90
20035;DHT22;10178;48.034;9.800;2022-12-29T07:18:54;7.70;99.90
20035;DHT22;10178;48.034;9.800;2022-12-29T07:21:20;7.60;99.90
20035;DHT22;10178;48.034;9.800;2022-12-29T07:23:46;7.60;99.90
20035;DHT22;10178;48.034;9.800;2022-12-29T07:26:14;7.50;99.90
20035;DHT22;10178;48.034;9.800;2022-12-29T07:28:40;7.40;99.90
20035;DHT22;10178;48.034;9.800;2022-12-29T07:31:16;7.50;99.90
20035;DHT22;10178;48.034;9.800;2022-12-29T07:33:43;7.50;99.90
20035;DHT22;10178;48.034;9.800;2022-12-29T07:36:09;7.60;99.90
20035;DHT22;10178;48.034;9.800;2022-12-29T07:38:35;7.50;99.90
20035;DHT22;10178;48.034;9.800;2022-12-29T07:41:01;7.50;99.90
20035;DHT22;10178;48.034;9.800;2022-12-29T07:43:27;7.60;99.90
20035;DHT22;10178;48.034;9.800;2022-12-29T07:45:53;7.70;99.90
20035;DHT22;10178;48.034;9.800;2022-12-29T07:48:18;7.70;99.90
20035;DHT22;10178;48.034;9.800;2022-12-29T07:50:44;7.80;99.90
20035;DHT22;10178;48.034;9.800;2022-12-29T07:53:10;7.70;99.90
20035;DHT22;10178;48.034;9.800;2022-12-29T07:55:35;7.70;99.90
20035;DHT22;10178;48.034;9.800;2022-12-29T07:58:01;7.80;99.90
20035;DHT22;10178;48.034;9.800;2022-12-29T08:00:27;7.80;99.90
20035;DHT22;10178;48.034;9.800;2022-12-29T08:02:52;7.80;99.90
20035;DHT22;10178;48.034;9.800;2022-12-29T08:05:18;7.90;99.90
20035;DHT22;10178;48.034;9.800;2022-12-29T08:07:44;7.90;99.90
20035;DHT22;10178;48.034;9.800;2022-12-29T08:10:11;8.00;99.90
20035;DHT22;10178;48.034;9.800;2022-12-29T08:12:41;8.10;99.90
20035;DHT22;10178;48.034;9.800;2022-12-29T08:15:08;8.00;99.90
20035;DHT22;10178;48.034;9.800;2022-12-29T08:17:34;8.10;99.90
20035;DHT22;10178;48.034;9.800;2022-12-29T08:19:59;8.00;99.90
20035;DHT22;10178;48.034;9.800;2022-12-29T08:22:25;8.10;99.90
20035;DHT22;10178;48.034;9.800;2022-12-29T08:24:51;8.10;99.90
20035;DHT22;10178;48.034;9.800;2022-12-29T08:27:17;8.10;99.90
20035;DHT22;10178;48.034;9.800;2022-12-29T08:29:43;8.20;99.90
20035;DHT22;10178;48.034;9.800;2022-12-29T08:32:08;8.30;99.90
20035;DHT22;10178;48.034;9.800;2022-12-29T08:34:34;8.30;99.90
20035;DHT22;10178;48.034;9.800;2022-12-29T08:37:00;8.40;99.90
20035;DHT22;10178;48.034;9.800;2022-12-29T08:39:25;8.40;99.90
20035;DHT22;10178;48.034;9.800;2022-12-29T08:41:51;8.30;99.90
20035;DHT22;10178;48.034;9.800;2022-12-29T08:44:17;8.40;99.90
20035;DHT22;10178;48.034;9.800;2022-12-29T08:46:43;8.40;99.90
20035;DHT22;10178;48.034;9.800;2022-12-29T08:49:08;8.40;99.90
20035;DHT22;10178;48.034;9.800;2022-12-29T08:51:35;8.40;99.90
20035;DHT22;10178;48.034;9.800;2022-12-29T08:54:01;8.40;99.90
20035;DHT22;10178;48.034;9.800;2022-12-29T08:56:27;8.50;99.90
20035;DHT22;10178;48.034;9.800;2022-12-29T08:58:53;8.60;99.90
20035;DHT22;10178;48.034;9.800;2022-12-29T09:01:19;8.60;99.90
20035;DHT22;10178;48.034;9.800;2022-12-29T09:03:45;8.70;99.90
20035;DHT22;10178;48.034;9.800;2022-12-29T09:06:12;8.60;99.90
20035;DHT22;10178;48.034;9.800;2022-12-29T09:08:38;8.60;99.90
20035;DHT22;10178;48.034;9.800;2022-12-29T09:11:12;8.50;99.90
20035;DHT22;10178;48.034;9.800;2022-12-29T09:13:38;8.40;99.90
20035;DHT22;10178;48.034;9.800;2022-12-29T09:16:05;8.50;99.90
20035;DHT22;10178;48.034;9.800;2022-12-29T09:18:31;8.40;99.90
20035;DHT22;10178;48.034;9.800;2022-12-29T09:21:02;8.40;99.90
20035;DHT22;10178;48.034;9.800;2022-12-29T09:23:28;8.50;99.90
20035;DHT22;10178;48.034;9.800;2022-12-29T09:25:54;8.40;99.90
20035;DHT22;10178;48.034;9.800;2022-12-29T09:28:21;8.40;99.90
20035;DHT22;10178;48.034;9.800;2022-12-29T09:30:47;8.50;99.90
20035;DHT22;10178;48.034;9.800;2022-12-29T09:33:13;8.60;99.90
20035;DHT22;10178;48.034;9.800;2022-12-29T09:35:49;8.60;99.90
20035;DHT22;10178;48.034;9.800;2022-12-29T09:38:15;8.70;99.90
20035;DHT22;10178;48.034;9.800;2022-12-29T09:40:44;8.90;99.90
20035;DHT22;10178;48.034;9.800;2022-12-29T09:46:02;8.90;99.90
20035;DHT22;10178;48.034;9.800;2022-12-29T09:48:36;9.00;99.90
20035;DHT22;10178;48.034;9.800;2022-12-29T09:51:13;9.00;99.90
20035;DHT22;10178;48.034;9.800;2022-12-29T09:53:52;9.20;99.90
20035;DHT22;10178;48.034;9.800;2022-12-29T09:56:23;9.20;99.90
20035;DHT22;10178;48.034;9.800;2022-12-29T10:03:59;9.20;99.90
20035;DHT22;10178;48.034;9.800;2022-12-29T10:06:43;9.30;99.90
20035;DHT22;10178;48.034;9.800;2022-12-29T10:15:14;9.20;99.90
20035;DHT22;10178;48.034;9.800;2022-12-29T10:17:49;9.30;99.90
20035;DHT22;10178;48.034;9.800;2022-12-29T10:20:24;9.20;99.90
20035;DHT22;10178;48.034;9.800;2022-12-29T10:25:39;9.50;99.90
20035;DHT22;10178;48.034;9.800;2022-12-29T10:28:44;9.50;99.90
20035;DHT22;10178;48.034;9.800;2022-12-29T10:31:09;9.50;99.90
20035;DHT22;10178;48.034;9.800;2022-12-29T10:33:41;9.60;99.90
20035;DHT22;10178;48.034;9.800;2022-12-29T10:36:27;9.60;99.90
20035;DHT22;10178;48.034;9.800;2022-12-29T10:39:05;9.40;99.90
20035;DHT22;10178;48.034;9.800;2022-12-29T10:41:44;9.30;99.90
20035;DHT22;10178;48.034;9.800;2022-12-29T10:44:15;9.40;99.90
20035;DHT22;10178;48.034;9.800;2022-12-29T10:46:43;9.30;99.90
20035;DHT22;10178;48.034;9.800;2022-12-29T10:49:16;9.30;99.90
20035;DHT22;10178;48.034;9.800;2022-12-29T10:51:44;9.40;99.90
20035;DHT22;10178;48.034;9.800;2022-12-29T10:56:52;9.60;99.90
20035;DHT22;10178;48.034;9.800;2022-12-29T10:59:24;9.70;99.90
20035;DHT22;10178;48.034;9.800;2022-12-29T11:02:00;9.80;99.90
20035;DHT22;10178;48.034;9.800;2022-12-29T11:05:05;9.60;99.90
20035;DHT22;10178;48.034;9.800;2022-12-29T11:07:34;9.80;99.90
20035;DHT22;10178;48.034;9.800;2022-12-29T11:10:21;9.80;99.90
20035;DHT22;10178;48.034;9.800;2022-12-29T11:12:59;9.70;99.90
20035;DHT22;10178;48.034;9.800;2022-12-29T11:15:25;9.60;99.90
20035;DHT22;10178;48.034;9.800;2022-12-29T11:17:57;9.50;99.90
20035;DHT22;10178;48.034;9.800;2022-12-29T11:20:35;9.50;99.90
20035;DHT22;10178;48.034;9.800;2022-12-29T11:23:03;9.40;99.90
20035;DHT22;10178;48.034;9.800;2022-12-29T11:25:29;9.40;99.90
20035;DHT22;10178;48.034;9.800;2022-12-29T11:28:15;9.40;99.90
20035;DHT22;10178;48.034;9.800;2022-12-29T11:30:41;9.50;99.90
20035;DHT22;10178;48.034;9.800;2022-12-29T11:33:08;9.40;99.90
20035;DHT22;10178;48.034;9.800;2022-12-29T11:35:44;9.50;99.90
20035;DHT22;10178;48.034;9.800;2022-12-29T11:38:19;9.50;99.90
20035;DHT22;10178;48.034;9.800;2022-12-29T11:40:46;9.60;99.90
20035;DHT22;10178;48.034;9.800;2022-12-29T11:45:52;9.70;99.90
20035;DHT22;10178;48.034;9.800;2022-12-29T11:48:20;9.70;99.90
20035;DHT22;10178;48.034;9.800;2022-12-29T11:50:52;9.70;99.90
20035;DHT22;10178;48.034;9.800;2022-12-29T11:53:29;9.70;99.90
20035;DHT22;10178;48.034;9.800;2022-12-29T11:56:04;9.60;99.90
20035;DHT22;10178;48.034;9.800;2022-12-29T11:58:33;9.90;99.90
20035;DHT22;10178;48.034;9.800;2022-12-29T12:03:30;9.90;99.90
20035;DHT22;10178;48.034;9.800;2022-12-29T12:06:00;9.80;99.90
20035;DHT22;10178;48.034;9.800;2022-12-29T12:11:24;9.70;99.90
20035;DHT22;10178;48.034;9.800;2022-12-29T12:14:05;9.80;99.90
20035;DHT22;10178;48.034;9.800;2022-12-29T12:22:16;10.00;99.90
20035;DHT22;10178;48.034;9.800;2022-12-29T12:24:57;10.00;99.90
20035;DHT22;10178;48.034;9.800;2022-12-29T12:27:31;9.80;99.90
20035;DHT22;10178;48.034;9.800;2022-12-29T12:30:22;9.70;99.90
20035;DHT22;10178;48.034;9.800;2022-12-29T12:35:44;9.70;99.90
20035;DHT22;10178;48.034;9.800;2022-12-29T12:38:31;9.70;99.90
20035;DHT22;10178;48.034;9.800;2022-12-29T12:41:08;9.70;99.90
20035;DHT22;10178;48.034;9.800;2022-12-29T12:43:43;9.60;99.90
20035;DHT22;10178;48.034;9.800;2022-12-29T12:57:29;9.80;99.90
20035;DHT22;10178;48.034;9.800;2022-12-29T13:00:09;9.70;99.90
20035;DHT22;10178;48.034;9.800;2022-12-29T13:11:48;10.00;99.90
20035;DHT22;10178;48.034;9.800;2022-12-29T13:22:52;9.90;99.90
20035;DHT22;10178;48.034;9.800;2022-12-29T13:25:27;9.90;99.90
20035;DHT22;10178;48.034;9.800;2022-12-29T13:28:04;9.90;99.90
20035;DHT22;10178;48.034;9.800;2022-12-29T13:30:43;9.70;99.90
20035;DHT22;10178;48.034;9.800;2022-12-29T13:33:40;9.80;99.90
20035;DHT22;10178;48.034;9.800;2022-12-29T13:36:40;9.70;99.90
20035;DHT22;10178;48.034;9.800;2022-12-29T13:39:33;9.80;99.90
20035;DHT22;10178;48.034;9.800;2022-12-29T13:42:01;9.80;99.90
20035;DHT22;10178;48.034;9.800;2022-12-29T13:44:34;9.80;99.90
20035;DHT22;10178;48.034;9.800;2022-12-29T13:47:04;9.60;99.90
20035;DHT22;10178;48.034;9.800;2022-12-29T13:49:32;9.50;99.90
20035;DHT22;10178;48.034;9.800;2022-12-29T13:52:15;9.40;99.90
20035;DHT22;10178;48.034;9.800;2022-12-29T13:59:57;9.30;99.90
20035;DHT22;10178;48.034;9.800;2022-12-29T14:07:44;9.30;99.90
20035;DHT22;10178;48.034;9.800;2022-12-29T14:10:38;9.50;99.90
20035;DHT22;10178;48.034;9.800;2022-12-29T14:13:14;9.50;99.90
20035;DHT22;10178;48.034;9.800;2022-12-29T14:15:53;9.60;99.90
20035;DHT22;10178;48.034;9.800;2022-12-29T14:18:21;9.50;99.90
20035;DHT22;10178;48.034;9.800;2022-12-29T14:20:58;9.50;99.90
20035;DHT22;10178;48.034;9.800;2022-12-29T14:23:26;9.60;99.90
20035;DHT22;10178;48.034;9.800;2022-12-29T14:36:39;9.30;99.90
20035;DHT22;10178;48.034;9.800;2022-12-29T14:42:14;9.40;99.90
20035;DHT22;10178;48.034;9.800;2022-12-29T14:44:50;9.40;99.90
20035;DHT22;10178;48.034;9.800;2022-12-29T14:49:47;9.50;99.90
20035;DHT22;10178;48.034;9.800;2022-12-29T14:54:48;9.60;99.90
20035;DHT22;10178;48.034;9.800;2022-12-29T14:57:33;9.60;99.90
20035;DHT22;10178;48.034;9.800;2022-12-29T15:02:50;9.70;99.90
20035;DHT22;10178;48.034;9.800;2022-12-29T15:05:35;9.60;99.90
20035;DHT22;10178;48.034;9.800;2022-12-29T15:08:03;9.60;99.90
20035;DHT22;10178;48.034;9.800;2022-12-29T15:10:36;9.60;99.90
20035;DHT22;10178;48.034;9.800;2022-12-29T15:13:05;9.60;99.90
20035;DHT22;10178;48.034;9.800;2022-12-29T15:15:36;9.60;99.90
20035;DHT22;10178;48.034;9.800;2022-12-29T15:18:25;9.60;99.90
20035;DHT22;10178;48.034;9.800;2022-12-29T15:20:57;9.50;99.90
20035;DHT22;10178;48.034;9.800;2022-12-29T15:23:23;9.60;99.90
20035;DHT22;10178;48.034;9.800;2022-12-29T15:26:03;9.60;99.90
20035;DHT22;10178;48.034;9.800;2022-12-29T15:28:38;9.60;99.90
20035;DHT22;10178;48.034;9.800;2022-12-29T15:31:10;9.50;99.90
20035;DHT22;10178;48.034;9.800;2022-12-29T15:33:40;9.50;99.90
20035;DHT22;10178;48.034;9.800;2022-12-29T15:36:12;9.60;99.90
20035;DHT22;10178;48.034;9.800;2022-12-29T15:38:38;9.50;99.90
20035;DHT22;10178;48.034;9.800;2022-12-29T15:46:30;9.40;99.90
20035;DHT22;10178;48.034;9.800;2022-12-29T15:48:56;9.40;99.90
20035;DHT22;10178;48.034;9.800;2022-12-29T15:51:30;9.40;99.90
20035;DHT22;10178;48.034;9.800;2022-12-29T15:53:57;9.40;99.90
20035;DHT22;10178;48.034;9.800;2022-12-29T15:56:23;9.30;99.90
20035;DHT22;10178;48.034;9.800;2022-12-29T15:58:51;9.40;99.90
20035;DHT22;10178;48.034;9.800;2022-12-29T16:01:36;9.50;99.90
20035;DHT22;10178;48.034;9.800;2022-12-29T16:04:07;9.50;99.90
20035;DHT22;10178;48.034;9.800;2022-12-29T16:06:38;9.40;99.90
20035;DHT22;10178;48.034;9.800;2022-12-29T16:09:05;9.50;99.90
20035;DHT22;10178;48.034;9.800;2022-12-29T16:11:38;9.40;99.90
20035;DHT22;10178;48.034;9.800;2022-12-29T16:14:17;9.40;99.90
20035;DHT22;10178;48.034;9.800;2022-12-29T16:16:44;9.30;99.90
20035;DHT22;10178;48.034;9.800;2022-12-29T16:19:39;9.30;99.90
20035;DHT22;10178;48.034;9.800;2022-12-29T16:22:17;9.30;99.90
20035;DHT22;10178;48.034;9.800;2022-12-29T16:24:47;9.20;99.90
20035;DHT22;10178;48.034;9.800;2022-12-29T16:27:22;9.10;99.90
20035;DHT22;10178;48.034;9.800;2022-12-29T16:29:53;9.20;99.90
20035;DHT22;10178;48.034;9.800;2022-12-29T16:32:30;9.20;99.90
20035;DHT22;10178;48.034;9.800;2022-12-29T16:37:42;9.30;99.90
20035;DHT22;10178;48.034;9.800;2022-12-29T16:40:37;9.40;99.90
20035;DHT22;10178;48.034;9.800;2022-12-29T16:43:03;9.30;99.90
20035;DHT22;10178;48.034;9.800;2022-12-29T16:50:41;9.20;99.90
20035;DHT22;10178;48.034;9.800;2022-12-29T16:53:28;9.20;99.90
20035;DHT22;10178;48.034;9.800;2022-12-29T16:55:55;9.30;99.90
20035;DHT22;10178;48.034;9.800;2022-12-29T16:58:25;9.30;99.90
20035;DHT22;10178;48.034;9.800;2022-12-29T17:00:57;9.50;99.90
20035;DHT22;10178;48.034;9.800;2022-12-29T17:03:38;9.40;99.90
20035;DHT22;10178;48.034;9.800;2022-12-29T17:06:04;9.50;99.90
20035;DHT22;10178;48.034;9.800;2022-12-29T17:08:39;9.40;99.90
20035;DHT22;10178;48.034;9.800;2022-12-29T17:11:22;9.30;99.90
20035;DHT22;10178;48.034;9.800;2022-12-29T17:14:21;9.20;99.90
20035;DHT22;10178;48.034;9.800;2022-12-29T17:16:48;9.20;99.90
20035;DHT22;10178;48.034;9.800;2022-12-29T17:19:20;9.20;99.90
20035;DHT22;10178;48.034;9.800;2022-12-29T17:21:46;9.30;99.90
20035;DHT22;10178;48.034;9.800;2022-12-29T17:24:19;9.20;99.90
20035;DHT22;10178;48.034;9.800;2022-12-29T17:26:49;9.20;99.90
20035;DHT22;10178;48.034;9.800;2022-12-29T17:29:37;9.10;99.90
20035;DHT22;10178;48.034;9.800;2022-12-29T17:35:05;9.00;99.90
20035;DHT22;10178;48.034;9.800;2022-12-29T17:37:34;9.10;99.90
20035;DHT22;10178;48.034;9.800;2022-12-29T17:40:01;9.00;99.90
20035;DHT22;10178;48.034;9.800;2022-12-29T17:42:28;9.00;99.90
20035;DHT22;10178;48.034;9.800;2022-12-29T17:44:54;9.20;99.90
20035;DHT22;10178;48.034;9.800;2022-12-29T17:47:20;9.10;99.90
20035;DHT22;10178;48.034;9.800;2022-12-29T17:49:45;9.20;99.90
20035;DHT22;10178;48.034;9.800;2022-12-29T17:52:12;9.20;99.90
20035;DHT22;10178;48.034;9.800;2022-12-29T17:54:49;9.10;99.90
20035;DHT22;10178;48.034;9.800;2022-12-29T17:57:17;9.10;99.90
20035;DHT22;10178;48.034;9.800;2022-12-29T17:59:43;9.10;99.90
20035;DHT22;10178;48.034;9.800;2022-12-29T18:02:25;9.20;99.90
20035;DHT22;10178;48.034;9.800;2022-12-29T18:04:52;9.20;99.90
20035;DHT22;10178;48.034;9.800;2022-12-29T18:07:18;9.20;99.90
20035;DHT22;10178;48.034;9.800;2022-12-29T18:09:43;9.10;99.90
20035;DHT22;10178;48.034;9.800;2022-12-29T18:15:11;9.10;99.90
20035;DHT22;10178;48.034;9.800;2022-12-29T18:17:40;9.20;99.90
20035;DHT22;10178;48.034;9.800;2022-12-29T18:20:06;9.10;99.90
20035;DHT22;10178;48.034;9.800;2022-12-29T18:22:32;9.10;99.90
20035;DHT22;10178;48.034;9.800;2022-12-29T18:24:57;9.10;99.90
20035;DHT22;10178;48.034;9.800;2022-12-29T18:27:25;9.20;99.90
20035;DHT22;10178;48.034;9.800;2022-12-29T18:29:50;9.20;99.90
20035;DHT22;10178;48.034;9.800;2022-12-29T18:32:16;9.20;99.90
20035;DHT22;10178;48.034;9.800;2022-12-29T18:34:42;9.20;99.90